Time;durP1;ratioP1;P1;durP2;ratioP2;P2;SDS_P1;SDS_P2;PMS_P1;PMS_P2;Temp;Humidity;BMP_temperature;BMP_pressure;BME280_temperature;BME280_humidity;BME280_pressure;Samples;Min_cycle;Max_cycle;Signal;HPM_P1;HPM_P2
2023/05/17 00:01:24;216467.00;0.72;374.26;0.00;0.00;0.62;;;;;15.10;1.00;;;;;;2272107;61;1067;-88
2023/05/17 00:03:53;137477.00;0.46;238.22;0.00;0.00;0.62;;;;;15.50;1.00;;;;;;2272330;61;1391;-87
2023/05/17 00:06:19;240588.00;0.80;415.76;60278.00;0.20;104.96;;;;;15.90;1.00;;;;;;2272340;61;2009;-88
2023/05/17 00:08:46;78036.00;0.26;135.64;0.00;0.00;0.62;;;;;15.90;1.00;;;;;;2272295;61;1587;-89
2023/05/17 00:11:15;319535.00;1.07;551.50;36521.00;0.12;63.87;;;;;15.60;1.00;;;;;;2272400;61;963;-88
2023/05/17 00:13:42;84955.00;0.28;147.60;0.00;0.00;0.62;;;;;15.20;1.00;;;;;;2272296;61;1380;-88
2023/05/17 00:16:09;219526.00;0.73;379.53;0.00;0.00;0.62;;;;;15.40;1.00;;;;;;2272347;61;1019;-87
2023/05/17 00:21:05;360545.00;1.20;621.99;0.00;0.00;0.62;;;;;15.50;1.00;;;;;;2274104;61;1326;-91
2023/05/17 00:23:32;316484.00;1.05;546.25;0.00;0.00;0.62;;;;;15.40;1.00;;;;;;2272005;61;1394;-89
2023/05/17 00:25:59;272902.00;0.91;471.33;0.00;0.00;0.62;;;;;15.00;1.00;;;;;;2272111;61;1915;-88
2023/05/17 00:28:27;69619.00;0.23;121.10;0.00;0.00;0.62;;;;;14.70;1.00;;;;;;2272380;61;1118;-88
2023/05/17 00:30:54;225086.00;0.75;389.09;8658.00;0.03;15.62;;;;;14.50;1.00;;;;;;2272281;61;1114;-87
2023/05/17 00:33:21;76449.00;0.25;132.90;0.00;0.00;0.62;;;;;14.40;1.00;;;;;;2272360;61;936;-88
2023/05/17 00:35:48;114062.00;0.38;197.84;0.00;0.00;0.62;;;;;14.40;1.00;;;;;;2272299;61;1503;-87
2023/05/17 00:38:15;89151.00;0.30;154.84;0.00;0.00;0.62;;;;;14.90;1.00;;;;;;2272284;61;1060;-88
2023/05/17 00:40:42;79873.00;0.27;138.82;0.00;0.00;0.62;;;;;15.20;1.00;;;;;;2272183;61;1020;-87
2023/05/17 00:43:09;142583.00;0.48;247.02;0.00;0.00;0.62;;;;;15.20;1.00;;;;;;2272153;61;1558;-89
2023/05/17 00:45:37;166858.00;0.56;288.85;0.00;0.00;0.62;;;;;15.00;1.00;;;;;;2272179;61;1994;-87
2023/05/17 00:48:04;209454.00;0.70;362.20;0.00;0.00;0.62;;;;;14.80;1.00;;;;;;2272184;61;1050;-86
2023/05/17 00:50:31;306521.00;1.02;529.13;0.00;0.00;0.62;;;;;14.90;1.00;;;;;;2272117;61;1158;-87
2023/05/17 00:52:59;126434.00;0.42;219.18;0.00;0.00;0.62;;;;;14.80;1.00;;;;;;2272176;61;1472;-88
2023/05/17 00:55:27;287401.00;0.96;496.26;22063.00;0.07;38.84;;;;;15.00;1.00;;;;;;2272139;61;1328;-88
2023/05/17 00:57:54;370864.00;1.24;639.72;63798.00;0.21;111.04;;;;;15.30;1.00;;;;;;2272231;61;1056;-88
2023/05/17 01:00:21;276669.00;0.92;477.81;57741.00;0.19;100.57;;;;;15.50;1.00;;;;;;2272230;61;1702;-85
2023/05/17 01:02:50;273608.00;0.91;472.55;44412.00;0.15;77.52;;;;;15.40;1.00;;;;;;2272025;61;1047;-87
2023/05/17 01:05:17;14115.00;0.05;25.08;0.00;0.00;0.62;;;;;15.40;1.00;;;;;;2272078;61;1998;-88
2023/05/17 01:07:44;314669.00;1.05;543.13;30372.00;0.10;53.23;;;;;15.50;1.00;;;;;;2272199;61;1170;-87
2023/05/17 01:10:12;177945.00;0.59;307.95;0.00;0.00;0.62;;;;;15.30;1.00;;;;;;2272122;61;1016;-87
2023/05/17 01:12:51;178017.00;0.59;308.07;0.00;0.00;0.62;;;;;15.00;1.00;;;;;;2272182;61;1087;-86
2023/05/17 01:15:23;175071.00;0.58;303.00;0.00;0.00;0.62;;;;;15.00;1.00;;;;;;2272169;61;1412;-87
2023/05/17 01:18:00;129920.00;0.43;225.19;0.00;0.00;0.62;;;;;15.20;1.00;;;;;;2272111;61;1022;-88
2023/05/17 01:20:31;157092.00;0.52;272.03;0.00;0.00;0.62;;;;;15.50;1.00;;;;;;2271945;61;1702;-86
2023/05/17 01:23:20;47255.00;0.16;82.44;0.00;0.00;0.62;;;;;15.80;1.00;;;;;;2272030;61;1010;-88
2023/05/17 01:25:57;184946.00;0.62;320.01;0.00;0.00;0.62;;;;;15.80;1.00;;;;;;2272171;61;1911;-86
2023/05/17 01:28:27;65136.00;0.22;113.35;0.00;0.00;0.62;;;;;15.30;1.00;;;;;;2272040;61;1024;-87
2023/05/17 01:30:55;347757.00;1.16;600.01;60335.00;0.20;105.06;;;;;15.70;1.00;;;;;;2272154;61;1014;-88
2023/05/17 01:33:22;255319.00;0.85;441.10;0.00;0.00;0.62;;;;;15.60;1.00;;;;;;2272079;61;1050;-87
2023/05/17 01:35:49;178359.00;0.59;308.66;0.00;0.00;0.62;;;;;15.80;1.00;;;;;;2272029;61;1284;-87
2023/05/17 01:38:16;267600.00;0.89;462.22;0.00;0.00;0.62;;;;;16.00;1.00;;;;;;2272021;61;1586;-86
2023/05/17 01:40:52;77558.00;0.26;134.82;31263.00;0.10;54.77;;;;;15.90;1.00;;;;;;2271897;61;1578;-87
2023/05/17 01:46:02;647730.00;2.16;1116.71;0.00;0.00;0.62;;;;;15.90;1.00;;;;;;2273740;61;1912;-86
2023/05/17 01:48:34;95892.00;0.32;166.48;0.00;0.00;0.62;;;;;16.10;1.00;;;;;;2271979;61;1754;-87
2023/05/17 01:51:03;152043.00;0.51;263.33;0.00;0.00;0.62;;;;;16.00;1.00;;;;;;2272142;61;953;-87
2023/05/17 01:53:37;154810.00;0.52;268.10;0.00;0.00;0.62;;;;;16.00;1.00;;;;;;2271925;61;1388;-85
2023/05/17 01:56:08;196359.00;0.65;339.66;0.00;0.00;0.62;;;;;15.90;1.00;;;;;;2271846;61;966;-88
2023/05/17 01:58:45;49949.00;0.17;87.10;0.00;0.00;0.62;;;;;15.90;1.00;;;;;;2271946;61;1008;-89
2023/05/17 02:01:14;160914.00;0.54;278.61;0.00;0.00;0.62;;;;;16.00;1.00;;;;;;2272148;61;1045;-89
2023/05/17 02:03:41;66840.00;0.22;116.30;0.00;0.00;0.62;;;;;16.20;1.00;;;;;;2272098;61;1411;-87
2023/05/17 02:06:08;248585.00;0.83;429.52;0.00;0.00;0.62;;;;;16.10;1.00;;;;;;2271891;61;2010;-87
2023/05/17 02:08:35;82157.00;0.27;142.76;0.00;0.00;0.62;;;;;15.90;1.00;;;;;;2271975;61;1434;-86
2023/05/17 02:11:02;452784.00;1.51;780.57;0.00;0.00;0.62;;;;;15.90;1.00;;;;;;2271840;61;1747;-87
2023/05/17 02:16:02;584856.00;1.95;1008.08;0.00;0.00;0.62;;;;;15.60;1.00;;;;;;2273889;61;1411;-88
2023/05/17 02:18:31;78685.00;0.26;136.77;0.00;0.00;0.62;;;;;15.60;1.00;;;;;;2272139;61;944;-86
2023/05/17 02:20:58;220257.00;0.73;380.79;0.00;0.00;0.62;;;;;15.30;1.00;;;;;;2271888;61;927;-88
2023/05/17 02:23:25;44764.00;0.15;78.13;0.00;0.00;0.62;;;;;15.40;1.00;;;;;;2271875;61;1011;-87
2023/05/17 02:25:52;213655.00;0.71;369.43;0.00;0.00;0.62;;;;;15.10;1.00;;;;;;2271932;61;2004;-88
2023/05/17 02:28:19;100184.00;0.33;173.89;0.00;0.00;0.62;;;;;14.80;1.00;;;;;;2271961;61;1130;-86
2023/05/17 02:30:45;228964.00;0.76;395.77;0.00;0.00;0.62;;;;;14.50;1.00;;;;;;2271831;61;1419;-87
2023/05/17 02:33:12;330450.00;1.10;570.26;45161.00;0.15;78.82;;;;;14.20;1.00;;;;;;2271941;61;1683;-87
2023/05/17 02:35:41;209732.00;0.70;362.67;0.00;0.00;0.62;;;;;13.70;1.00;;;;;;2271947;61;1354;-88
2023/05/17 02:38:08;154477.00;0.51;267.52;0.00;0.00;0.62;;;;;13.70;1.00;;;;;;2271972;61;1005;-88
2023/05/17 02:40:35;158533.00;0.53;274.51;0.00;0.00;0.62;;;;;13.70;1.00;;;;;;2271875;61;1043;-87
2023/05/17 02:45:30;938143.00;3.13;1623.21;0.00;0.00;0.62;;;;;14.40;1.00;;;;;;2273743;61;1907;-87
2023/05/17 02:50:25;427810.00;1.43;737.62;0.00;0.00;0.62;;;;;14.60;1.00;;;;;;2273527;61;1487;-87
2023/05/17 02:52:53;279111.00;0.93;482.01;37151.00;0.12;64.96;;;;;14.50;1.00;;;;;;2271864;61;1763;-89
2023/05/17 02:55:20;146191.00;0.49;253.24;0.00;0.00;0.62;;;;;14.60;1.00;;;;;;2271852;61;1371;-88
2023/05/17 02:57:47;147528.00;0.49;255.55;0.00;0.00;0.62;;;;;14.20;1.00;;;;;;2271919;61;1632;-89
2023/05/17 03:02:41;472266.00;1.57;814.09;0.00;0.00;0.62;;;;;14.40;1.00;;;;;;2273559;61;1368;-88
2023/05/17 03:05:09;113187.00;0.38;196.33;0.00;0.00;0.62;;;;;14.60;1.00;;;;;;2272006;61;1355;-89
2023/05/17 03:07:36;135996.00;0.45;235.67;0.00;0.00;0.62;;;;;14.60;1.00;;;;;;2271900;61;927;-88
2023/05/17 03:12:32;517250.00;1.72;891.53;0.00;0.00;0.62;;;;;14.10;1.00;;;;;;2273427;61;1393;-89
2023/05/17 03:14:59;209307.00;0.70;361.94;0.00;0.00;0.62;;;;;13.90;1.00;;;;;;2271892;61;1356;-88
2023/05/17 03:17:25;140550.00;0.47;243.52;0.00;0.00;0.62;;;;;13.90;1.00;;;;;;2272060;61;1003;-88
2023/05/17 03:19:52;120983.00;0.40;209.78;0.00;0.00;0.62;;;;;13.80;1.00;;;;;;2271969;61;932;-89
2023/05/17 03:22:19;153453.00;0.51;265.76;0.00;0.00;0.62;;;;;14.00;1.00;;;;;;2271842;61;1711;-90
2023/05/17 03:24:46;174670.00;0.58;302.31;0.00;0.00;0.62;;;;;14.50;1.00;;;;;;2271854;61;2189;-88
2023/05/17 03:27:13;481113.00;1.60;829.31;96316.00;0.32;167.21;;;;;14.10;1.00;;;;;;2271800;61;1923;-88
2023/05/17 03:29:42;268086.00;0.89;463.05;0.00;0.00;0.62;;;;;13.80;1.00;;;;;;2271894;61;1108;-88
2023/05/17 03:32:09;143610.00;0.48;248.79;0.00;0.00;0.62;;;;;14.00;1.00;;;;;;2272022;61;1186;-90
2023/05/17 03:34:35;143650.00;0.48;248.86;0.00;0.00;0.62;;;;;14.10;1.00;;;;;;2271923;61;1300;-89
2023/05/17 03:39:30;670601.00;2.24;1156.29;15050.00;0.05;26.70;;;;;13.70;1.00;;;;;;2274128;61;1413;-87
2023/05/17 03:41:57;129858.00;0.43;225.08;0.00;0.00;0.62;;;;;13.10;1.00;;;;;;2276109;55;3766;-87
2023/05/17 03:44:24;473306.00;1.58;815.88;0.00;0.00;0.62;;;;;13.40;1.00;;;;;;2276286;61;1718;-87
2023/05/17 03:46:53;238745.00;0.80;412.59;0.00;0.00;0.62;;;;;13.60;1.00;;;;;;2276514;61;1919;-89
2023/05/17 03:49:20;270655.00;0.90;467.47;40668.00;0.14;71.04;;;;;13.60;1.00;;;;;;2276467;61;992;-87
2023/05/17 03:51:46;157792.00;0.53;273.23;12579.00;0.04;22.42;;;;;13.50;1.00;;;;;;2276568;61;1026;-86
2023/05/17 03:54:13;194205.00;0.65;335.95;0.00;0.00;0.62;;;;;13.40;1.00;;;;;;2276587;61;1273;-87
2023/05/17 03:56:45;113596.00;0.38;197.03;0.00;0.00;0.62;;;;;13.40;1.00;;;;;;2276621;61;1678;-88
2023/05/17 03:59:12;181828.00;0.61;314.64;0.00;0.00;0.62;;;;;13.20;1.00;;;;;;2275771;55;3732;-89
2023/05/17 04:01:40;130099.00;0.43;225.50;0.00;0.00;0.62;;;;;13.10;1.00;;;;;;2272549;61;952;-88
2023/05/17 04:04:08;173942.00;0.58;301.06;0.00;0.00;0.62;;;;;13.30;1.00;;;;;;2272401;61;1396;-86
2023/05/17 04:06:35;229321.00;0.76;396.38;0.00;0.00;0.62;;;;;12.90;1.00;;;;;;2272333;61;2022;-87
2023/05/17 04:09:03;399062.00;1.33;688.19;41828.00;0.14;73.05;;;;;12.90;1.00;;;;;;2272355;61;1093;-87
2023/05/17 04:11:31;320025.00;1.07;552.34;64559.00;0.22;112.36;;;;;12.80;1.00;;;;;;2272540;61;1066;-88
2023/05/17 04:13:59;186837.00;0.62;323.26;0.00;0.00;0.62;;;;;12.90;1.00;;;;;;2272432;61;1411;-88
2023/05/17 04:16:25;266171.00;0.89;459.76;0.00;0.00;0.62;;;;;12.90;1.00;;;;;;2272462;61;1155;-89
2023/05/17 04:18:53;557120.00;1.86;960.23;149865.00;0.50;259.57;;;;;13.10;1.00;;;;;;2272408;61;1018;-88
2023/05/17 04:21:21;165645.00;0.55;286.76;0.00;0.00;0.62;;;;;12.90;1.00;;;;;;2272370;61;1727;-87
2023/05/17 04:23:48;160725.00;0.54;278.29;0.00;0.00;0.62;;;;;13.00;1.00;;;;;;2272458;61;1270;-88
2023/05/17 04:31:14;383101.00;1.28;660.76;0.00;0.00;0.62;;;;;13.10;1.00;;;;;;2274051;61;1384;-88
2023/05/17 04:33:40;491585.00;1.64;847.34;138746.00;0.46;240.41;;;;;13.60;1.00;;;;;;2272276;61;1586;-87
2023/05/17 04:38:38;653817.00;2.18;1127.24;0.00;0.00;0.62;;;;;13.80;1.00;;;;;;2274108;61;1356;-87
2023/05/17 04:41:08;198105.00;0.66;342.66;0.00;0.00;0.62;;;;;14.00;1.00;;;;;;2272257;61;1711;-88
2023/05/17 04:43:35;117413.00;0.39;203.62;0.00;0.00;0.62;;;;;13.90;1.00;;;;;;2277179;55;3719;-88
2023/05/17 04:46:04;223665.00;0.75;386.65;0.00;0.00;0.62;;;;;14.00;1.00;;;;;;2276359;61;1920;-87
2023/05/17 04:48:32;187340.00;0.62;324.13;0.00;0.00;0.62;;;;;14.10;1.00;;;;;;2276158;61;1593;-89
2023/05/17 04:51:02;129467.00;0.43;224.41;0.00;0.00;0.62;;;;;14.10;1.00;;;;;;2278718;40;3597;-89
2023/05/17 04:53:30;239842.00;0.80;414.48;3768.00;0.01;7.15;;;;;14.00;1.00;;;;;;2272393;61;1087;-87
2023/05/17 04:55:59;104210.00;0.35;180.84;0.00;0.00;0.62;;;;;14.10;1.00;;;;;;2268115;61;1181;-88
2023/05/17 04:58:26;205178.00;0.68;354.84;0.00;0.00;0.62;;;;;14.00;1.00;;;;;;2279902;40;3609;-86
2023/05/17 05:00:53;120264.00;0.40;208.54;0.00;0.00;0.62;;;;;14.00;1.00;;;;;;2276345;61;948;-88
2023/05/17 05:03:20;342880.00;1.14;591.62;0.00;0.00;0.62;;;;;14.00;1.00;;;;;;2275687;40;3555;-87
2023/05/17 05:05:47;285432.00;0.95;492.88;0.00;0.00;0.62;;;;;14.00;1.00;;;;;;2277153;55;3800;-88
2023/05/17 05:10:41;693756.00;2.31;1196.41;37451.00;0.12;65.48;;;;;13.10;1.00;;;;;;2274091;61;1399;-88
2023/05/17 05:13:10;340977.00;1.14;588.35;0.00;0.00;0.62;;;;;13.40;1.00;;;;;;2287376;40;3747;-85
2023/05/17 05:15:37;338348.00;1.13;583.83;5754.00;0.02;10.59;;;;;13.70;1.00;;;;;;2276309;61;1458;-89
2023/05/17 05:18:04;208019.00;0.69;359.73;0.00;0.00;0.62;;;;;13.50;1.00;;;;;;2276367;61;993;-87
2023/05/17 05:20:32;131932.00;0.44;228.66;0.00;0.00;0.62;;;;;13.90;1.00;;;;;;2276335;61;1010;-88
2023/05/17 05:22:59;244769.00;0.82;422.95;0.00;0.00;0.62;;;;;14.20;1.00;;;;;;2283002;40;3591;-89
2023/05/17 05:30:28;657953.00;2.19;1134.40;90927.00;0.30;157.91;;;;;14.60;1.00;;;;;;2273993;61;1407;-89
2023/05/17 05:32:55;373870.00;1.25;644.89;95401.00;0.32;165.63;;;;;14.80;1.00;;;;;;2272063;61;1545;-89
2023/05/17 05:37:53;650907.00;2.17;1122.21;79010.00;0.26;137.33;;;;;16.00;1.00;;;;;;2274678;61;1317;-88
2023/05/17 05:40:20;311885.00;1.04;538.35;90961.00;0.30;157.97;;;;;17.60;1.00;;;;;;2271955;61;1027;-89
2023/05/17 05:45:15;647265.00;2.16;1115.90;97027.00;0.32;168.44;;;;;19.60;1.00;;;;;;2273956;61;1424;-87
2023/05/17 05:47:43;206456.00;0.69;357.04;88979.00;0.30;154.54;;;;;20.00;1.00;;;;;;2272160;61;2000;-89
2023/05/17 05:50:11;313913.00;1.05;541.84;92583.00;0.31;160.77;;;;;20.40;1.00;;;;;;2272079;61;1035;-88
2023/05/17 05:52:38;291942.00;0.97;504.07;94656.00;0.32;164.35;;;;;20.80;1.00;;;;;;2272036;61;1684;-89
2023/05/17 05:55:06;299360.00;1.00;516.82;79357.00;0.26;137.93;;;;;21.30;1.00;;;;;;2272036;61;1284;-88
2023/05/17 05:57:33;312298.00;1.04;539.06;90519.00;0.30;157.20;;;;;21.90;1.00;;;;;;2271986;61;1683;-87
2023/05/17 06:00:00;204849.00;0.68;354.27;97340.00;0.32;168.98;;;;;23.10;1.00;;;;;;2271915;61;1036;-90
2023/05/17 06:02:26;241269.00;0.80;416.93;90221.00;0.30;156.69;;;;;22.90;1.00;;;;;;2272047;61;949;-89
2023/05/17 06:04:55;550842.00;1.84;949.41;92667.00;0.31;160.91;;;;;23.50;1.00;;;;;;2282862;56;3739;-87
2023/05/17 06:07:22;318940.00;1.06;550.48;93535.00;0.31;162.41;;;;;24.10;1.00;;;;;;2283334;55;3867;-87
2023/05/17 06:09:49;434814.00;1.45;749.66;130133.00;0.43;225.56;;;;;24.40;1.00;;;;;;2272081;61;1005;-88
2023/05/17 06:12:16;231655.00;0.77;400.40;94499.00;0.31;164.08;;;;;24.60;1.00;;;;;;2272225;61;944;-88
2023/05/17 06:14:43;215222.00;0.72;372.12;88075.00;0.29;152.98;;;;;24.60;1.00;;;;;;2271980;61;1801;-89
2023/05/17 06:17:10;243537.00;0.81;420.84;85193.00;0.28;148.01;;;;;25.30;1.00;;;;;;2272112;61;962;-88
2023/05/17 06:19:37;301026.00;1.00;519.68;81664.00;0.27;141.91;;;;;25.80;1.00;;;;;;2272077;61;941;-86
2023/05/17 06:22:05;239832.00;0.80;414.46;85864.00;0.29;149.17;;;;;25.00;1.00;;;;;;2271988;61;992;-85
2023/05/17 06:24:32;299252.00;1.00;516.63;82839.00;0.28;143.94;;;;;24.50;1.00;;;;;;2272023;61;1381;-87
2023/05/17 06:26:59;315522.00;1.05;544.60;84586.00;0.28;146.96;;;;;25.10;1.00;;;;;;2271969;61;1998;-85
2023/05/17 06:29:26;248643.00;0.83;429.62;88155.00;0.29;153.12;;;;;25.30;1.00;;;;;;2272067;61;1039;-85
2023/05/17 06:31:55;305173.00;1.02;526.81;84613.00;0.28;147.00;;;;;26.20;1.00;;;;;;2272129;61;1108;-87
2023/05/17 06:34:22;640626.00;2.14;1104.42;151894.00;0.51;263.07;;;;;27.10;1.00;;;;;;2272040;61;1361;-87
2023/05/17 06:36:48;176352.00;0.59;305.21;84110.00;0.28;146.14;;;;;27.00;1.00;;;;;;2272088;61;1021;-87
2023/05/17 06:39:17;195071.00;0.65;337.44;85710.00;0.29;148.90;;;;;27.10;1.00;;;;;;2272006;61;989;-88
2023/05/17 06:41:44;223510.00;0.75;386.38;83818.00;0.28;145.63;;;;;27.20;1.00;;;;;;2272061;61;1006;-88
2023/05/17 06:44:11;352908.00;1.18;608.86;82315.00;0.27;143.04;;;;;26.80;1.00;;;;;;2271913;61;1382;-89
2023/05/17 06:46:37;240375.00;0.80;415.40;103594.00;0.35;179.78;;;;;26.60;1.00;;;;;;2272095;61;2089;-90
2023/05/17 06:51:34;529640.00;1.77;912.87;87101.00;0.29;151.30;;;;;24.50;1.00;;;;;;2273671;61;1368;-87
2023/05/17 06:54:00;217408.00;0.72;375.88;84735.00;0.28;147.22;;;;;24.50;1.00;;;;;;2271959;61;1275;-88
2023/05/17 06:56:29;418209.00;1.39;721.11;86599.00;0.29;150.43;;;;;25.00;1.00;;;;;;2272047;61;1559;-89
2023/05/17 06:58:56;269190.00;0.90;464.95;73720.00;0.25;128.19;;;;;24.90;1.00;;;;;;2272031;61;1627;-88
2023/05/17 07:01:23;178144.00;0.59;308.29;85799.00;0.29;149.05;;;;;26.10;1.00;;;;;;2272133;61;991;-89
2023/05/17 07:03:50;228579.00;0.76;395.10;82401.00;0.27;143.18;;;;;25.10;1.00;;;;;;2271946;61;1335;-87
2023/05/17 07:06:17;313630.00;1.05;541.35;93766.00;0.31;162.81;;;;;25.60;1.00;;;;;;2271932;61;921;-86
2023/05/17 07:08:45;350541.00;1.17;604.79;112615.00;0.38;195.34;;;;;25.90;1.00;;;;;;2271990;61;1936;-86
2023/05/17 07:11:12;421542.00;1.41;726.84;116685.00;0.39;202.36;;;;;25.60;1.00;;;;;;2272632;61;1301;-87
2023/05/17 07:13:41;264715.00;0.88;457.26;84567.00;0.28;146.93;;;;;25.20;1.00;;;;;;2272637;61;1603;-86
2023/05/17 07:16:08;285589.00;0.95;493.15;85332.00;0.28;148.25;;;;;25.30;1.00;;;;;;2272697;61;1001;-87
2023/05/17 07:18:35;217728.00;0.73;376.43;66426.00;0.22;115.58;;;;;24.90;1.00;;;;;;2272742;61;1150;-88
2023/05/17 07:21:02;230140.00;0.77;397.79;83154.00;0.28;144.49;;;;;25.80;1.00;;;;;;2272700;61;1613;-87
2023/05/17 07:23:29;193471.00;0.64;334.68;88949.00;0.30;154.49;;;;;24.90;1.00;;;;;;2272680;61;1098;-87
2023/05/17 07:25:56;340087.00;1.13;586.82;110188.00;0.37;191.15;;;;;23.80;1.00;;;;;;2272870;61;1440;-89
2023/05/17 07:28:22;257530.00;0.86;444.90;82088.00;0.27;142.64;;;;;22.90;1.00;;;;;;2272865;61;2003;-86
2023/05/17 07:30:51;277811.00;0.93;479.77;90502.00;0.30;157.17;;;;;20.30;1.00;;;;;;2272834;61;1110;-87
2023/05/17 07:33:18;259295.00;0.86;447.94;82905.00;0.28;144.06;;;;;19.40;1.00;;;;;;2272623;61;1091;-87
2023/05/17 07:38:18;492657.00;1.64;849.18;89684.00;0.30;155.76;;;;;20.50;1.00;;;;;;2274604;61;1412;-87
2023/05/17 07:40:45;772022.00;2.57;1332.37;131502.00;0.44;227.92;;;;;21.40;1.00;;;;;;2302668;56;3745;-88
2023/05/17 07:43:12;479665.00;1.60;826.82;95397.00;0.32;165.63;;;;;22.30;1.00;;;;;;2276532;61;1687;-86
2023/05/17 07:45:39;331804.00;1.11;572.59;89611.00;0.30;155.64;;;;;20.90;1.00;;;;;;2276458;61;1363;-87
2023/05/17 07:48:07;510319.00;1.70;879.59;128455.00;0.43;222.66;;;;;20.80;1.00;;;;;;2276632;61;1988;-85
2023/05/17 07:55:36;907271.00;3.02;1568.89;85902.00;0.29;149.23;;;;;22.20;1.00;;;;;;2273897;61;1408;-87
2023/05/17 08:00:32;118881984.00;396.27;68059920.00;102108.00;0.34;177.21;;;;;22.70;1.00;;;;;;2274162;61;1477;-89
2023/05/17 08:02:58;810436.00;2.70;1399.33;117263.00;0.39;203.36;;;;;22.90;1.00;;;;;;2272442;61;1597;-89
2023/05/17 08:05:27;549955.00;1.83;947.88;84585.00;0.28;146.96;;;;;23.30;1.00;;;;;;2272252;61;1271;-86
2023/05/17 08:07:54;893817.00;2.98;1545.26;244812.00;0.82;423.03;;;;;23.70;1.00;;;;;;2294452;55;3774;-87
2023/05/17 08:12:48;1038785.00;3.46;1801.29;81654.00;0.27;141.89;;;;;22.10;1.00;;;;;;2274546;61;1413;-87
2023/05/17 08:17:47;1228940.00;4.10;2142.63;96043.00;0.32;166.74;;;;;20.60;1.00;;;;;;2338007;39;3598;-86
2023/05/17 08:22:45;1310048.00;4.37;2290.51;88415.00;0.29;153.57;;;;;19.80;1.00;;;;;;2273973;61;1404;-87
2023/05/17 08:27:41;887459.00;2.96;1534.10;8421.00;0.03;15.21;;;;;18.10;1.00;;;;;;2274265;61;1899;-88
2023/05/17 08:30:09;518055.00;1.73;892.91;0.00;0.00;0.62;;;;;17.90;1.00;;;;;;2272515;61;1676;-86
2023/05/17 08:32:36;614387.00;2.05;1059.07;25494.00;0.08;44.78;;;;;17.70;1.00;;;;;;2272330;61;1174;-88
2023/05/17 08:35:03;747267.00;2.49;1289.31;36858.00;0.12;64.45;;;;;17.00;1.00;;;;;;2272624;61;1292;-89
2023/05/17 08:37:29;792226.00;2.64;1367.57;75801.00;0.25;131.78;;;;;16.30;1.00;;;;;;2272494;61;933;-86
2023/05/17 08:39:58;754643.00;2.52;1302.13;70065.00;0.23;121.87;;;;;16.20;1.00;;;;;;2272298;61;1594;-86
2023/05/17 08:44:54;965056.00;3.22;1670.68;94565.00;0.32;164.19;;;;;15.90;1.00;;;;;;2274307;61;1405;-86
2023/05/17 08:49:58;808500.00;2.69;1395.95;0.00;0.00;0.62;;;;;15.70;1.00;;;;;;2274309;61;1334;-88
2023/05/17 08:52:27;669990.00;2.23;1155.24;0.00;0.00;0.62;;;;;16.40;1.00;;;;;;2272320;61;984;-88
2023/05/17 08:54:54;590672.00;1.97;1018.12;0.00;0.00;0.62;;;;;16.90;1.00;;;;;;2272435;61;1442;-89
2023/05/17 09:04:54;897729.00;2.99;1552.13;5024.00;0.02;9.33;;;;;16.70;1.00;;;;;;2273881;61;1439;-86
2023/05/17 09:07:21;383713.00;1.28;661.81;0.00;0.00;0.62;;;;;17.60;1.00;;;;;;2272295;61;2004;-88
2023/05/17 09:14:46;689555.00;2.30;1189.13;0.00;0.00;0.62;;;;;16.20;1.00;;;;;;2274064;61;1542;-87
2023/05/17 09:17:16;518874.00;1.73;894.33;21119.00;0.07;37.21;;;;;16.80;1.00;;;;;;2294552;40;3621;-86
2023/05/17 09:22:15;1332132.00;4.44;2331.03;102530.00;0.34;177.94;;;;;17.20;1.00;;;;;;2274144;61;1365;-87
2023/05/17 09:27:15;831214.00;2.77;1435.62;0.00;0.00;0.62;;;;;16.80;1.00;;;;;;2274253;61;1982;-84
2023/05/17 09:34:49;632932.00;2.11;1091.12;0.00;0.00;0.62;;;;;16.60;1.00;;;;;;2285894;55;3690;-88
2023/05/17 09:37:19;280367.00;0.93;484.17;0.00;0.00;0.62;;;;;16.60;1.00;;;;;;2276273;61;1187;-86
2023/05/17 09:44:53;820641.00;2.74;1417.15;0.00;0.00;0.62;;;;;18.00;1.00;;;;;;2279396;39;3529;-90
2023/05/17 09:49:49;1103971.00;3.68;1917.53;148.00;0.00;0.88;;;;;18.50;1.00;;;;;;2274138;61;1301;-86
2023/05/17 10:02:24;506484.00;1.69;872.99;0.00;0.00;0.62;;;;;17.30;1.00;;;;;;2307409;39;3547;31
2023/05/17 10:19:59;490309.00;1.63;845.14;0.00;0.00;0.62;;;;;16.20;1.00;;;;;;2273775;61;1408;-90
2023/05/17 10:27:23;739566.00;2.47;1275.92;19495.00;0.06;34.40;;;;;15.90;1.00;;;;;;2273949;61;1970;-87
2023/05/17 10:34:50;517607.00;1.73;892.14;1738.00;0.01;3.63;;;;;16.80;1.00;;;;;;2273491;61;1305;-88
2023/05/17 10:37:21;368837.00;1.23;636.24;0.00;0.00;0.62;;;;;17.40;1.00;;;;;;2324495;39;3780;-88
2023/05/17 10:42:19;719966.00;2.40;1241.88;0.00;0.00;0.62;;;;;16.30;1.00;;;;;;2273408;61;1372;-88
2023/05/17 10:57:19;330943.00;1.10;571.11;0.00;0.00;0.62;;;;;16.60;1.00;;;;;;2277116;55;3679;-87
2023/05/17 11:02:24;735852.00;2.45;1269.47;0.00;0.00;0.62;;;;;16.50;1.00;;;;;;2274510;61;1372;-88
2023/05/17 11:04:52;283194.00;0.94;489.03;0.00;0.00;0.62;;;;;17.10;1.00;;;;;;2272541;61;1650;-87
2023/05/17 11:07:28;271048.00;0.90;468.15;0.00;0.00;0.62;;;;;17.20;1.00;;;;;;2277497;39;3602;-85
2023/05/17 11:17:22;906525.00;3.02;1567.58;0.00;0.00;0.62;;;;;15.90;1.00;;;;;;2284834;39;3486;-89
2023/05/17 11:22:17;497542.00;1.66;857.59;0.00;0.00;0.62;;;;;16.70;1.00;;;;;;2274706;61;1394;-90
2023/05/17 11:24:48;783693.00;2.61;1352.70;38276.00;0.13;66.91;;;;;16.80;1.00;;;;;;2275251;39;3622;-89
2023/05/17 11:32:12;1121826.00;3.74;1949.50;104556.00;0.35;181.44;;;;;16.40;1.00;;;;;;1977755;40;3352;-87
2023/05/17 11:39:37;864391.00;2.88;1493.66;74715.00;0.25;129.91;;;;;16.40;1.00;;;;;;2274084;61;1412;-88
2023/05/17 11:44:33;754115.00;2.51;1301.21;91592.00;0.31;159.06;;;;;16.50;1.00;;;;;;1959767;56;3433;-88
2023/05/17 11:47:03;115330.00;0.38;200.03;0.00;0.00;0.62;;;;;16.80;1.00;;;;;;2303379;40;3590;-88
2023/05/17 11:54:27;611839.00;2.04;1054.67;39511.00;0.13;69.04;;;;;17.40;1.00;;;;;;2274505;61;1418;-86
2023/05/17 11:59:23;277903.00;0.93;479.93;0.00;0.00;0.62;;;;;18.20;1.00;;;;;;2274056;61;1480;-87
2023/05/17 12:01:51;153680.00;0.51;266.15;0.00;0.00;0.62;;;;;18.00;1.00;;;;;;2282977;39;3611;-90
2023/05/17 12:04:24;104771.00;0.35;181.81;0.00;0.00;0.62;;;;;17.30;1.00;;;;;;2276430;61;1407;-88
2023/05/17 12:06:52;206647.00;0.69;357.36;0.00;0.00;0.62;;;;;16.70;1.00;;;;;;2276698;61;917;-86
2023/05/17 12:09:19;145226.00;0.48;251.58;0.00;0.00;0.62;;;;;16.20;1.00;;;;;;2276657;61;1928;-87
2023/05/17 12:11:47;128810.00;0.43;223.28;0.00;0.00;0.62;;;;;16.10;1.00;;;;;;2276590;61;1273;-88
2023/05/17 12:16:47;945881.00;3.15;1636.85;0.00;0.00;0.62;;;;;16.40;1.00;;;;;;2274430;61;1417;-87
2023/05/17 12:19:18;190408.00;0.63;329.41;21576.00;0.07;38.00;;;;;16.80;1.00;;;;;;2272432;61;1585;-87
2023/05/17 12:24:14;769993.00;2.57;1328.84;0.00;0.00;0.62;;;;;17.00;1.00;;;;;;2295145;40;3485;-87
2023/05/17 12:29:11;479148.00;1.60;825.93;0.00;0.00;0.62;;;;;17.10;1.00;;;;;;2273846;61;1895;-83
2023/05/17 12:31:40;155478.00;0.52;269.25;0.00;0.00;0.62;;;;;17.00;1.00;;;;;;2272337;61;1223;-87
2023/05/17 12:34:11;161223.00;0.54;279.15;0.00;0.00;0.62;;;;;17.20;1.00;;;;;;2272314;61;1351;-87
2023/05/17 12:39:08;676483.00;2.25;1166.48;103546.00;0.35;179.69;;;;;17.40;1.00;;;;;;2274532;61;1295;-87
2023/05/17 12:41:35;289205.00;0.96;499.36;0.00;0.00;0.62;;;;;17.50;1.00;;;;;;2272464;61;1015;-85
2023/05/17 12:46:32;494845.00;1.65;852.95;0.00;0.00;0.62;;;;;16.40;1.00;;;;;;2274239;61;2063;-87
2023/05/17 12:51:41;496926.00;1.66;856.53;0.00;0.00;0.62;;;;;16.50;1.00;;;;;;2273911;61;1390;-87
2023/05/17 12:54:07;376950.00;1.26;650.18;0.00;0.00;0.62;;;;;16.00;1.00;;;;;;2280528;55;3756;-87
2023/05/17 12:56:35;96846.00;0.32;168.13;0.00;0.00;0.62;;;;;16.00;1.00;;;;;;2280728;40;3786;-88
2023/05/17 12:59:06;183182.00;0.61;316.97;0.00;0.00;0.62;;;;;15.70;1.00;;;;;;2276368;61;1033;-88
2023/05/17 13:01:35;137713.00;0.46;238.63;0.00;0.00;0.62;;;;;15.70;1.00;;;;;;2276372;61;1551;-87